LFRC/CER METAR and TAF weather

Enter ICAO airport designator
Station Type Date Time Source
LFRC METAR 2019/10/15 08:30 UTC NOAA

LFRC 150830Z AUTO 18006KT 9999 FEW017 BKN200 BKN230 12/11 Q1005 TEMPO 22015G30KT 4000 SHRA BKN015CB


Station Type Date Time Source
LFRC Decoded METAR 2019/10/15 08:30 UTC NOAA

Cherbourg / Maupertus, France (LFRC) 49-39N 001-28W 139M
Oct 15, 2019 - 04:30 AM EDT / 2019.10.15 0830 UTC
Wind: from the S (180 degrees) at 7 MPH (6 KT):0
Visibility: greater than 7 mile(s):0
Sky conditions: mostly cloudy
Weather: Cumulonimbus clouds observed
Temperature: 53 F (12 C)
Dew Point: 51 F (11 C)
Relative Humidity: 93%
Pressure (altimeter): 29.68 in. Hg (1005 hPa)
ob: LFRC 150830Z AUTO 18006KT 9999 FEW017 BKN200 BKN230 12/11 Q1005 TEMPO 22015G30KT 4000 SHRA BKN015CB
cycle: 8

Station Type Date Time Source
LFRC TAF 2008/10/12 17:07 UTC NOAA

TAF
AMD LFRC 121707Z 121721 CNL

Example: see airport list